createdAt,value
2023-06-19T00:01:08.707Z,61.98
2023-06-19T00:03:35.704Z,61.78
2023-06-19T00:06:02.898Z,61.41
2023-06-19T00:08:29.751Z,61.84
2023-06-19T00:10:56.522Z,61.69
2023-06-19T00:13:23.505Z,62.75
2023-06-19T00:15:50.318Z,62.83
2023-06-19T00:18:19.103Z,63.39
2023-06-19T00:20:47.508Z,63.91
2023-06-19T00:23:15.778Z,62.77
2023-06-19T00:25:44.419Z,62.63
2023-06-19T00:28:13.555Z,62.76
2023-06-19T00:30:40.956Z,62.86
2023-06-19T00:33:08.656Z,63.52
2023-06-19T00:35:35.529Z,63.26
2023-06-19T00:38:02.267Z,64.05
2023-06-19T00:40:31.510Z,63.33
2023-06-19T00:42:58.551Z,63.41
2023-06-19T00:45:26.494Z,63.20
2023-06-19T00:47:54.563Z,64.22
2023-06-19T00:50:22.545Z,64.02
2023-06-19T00:52:50.106Z,64.37
2023-06-19T00:55:18.220Z,64.56
2023-06-19T00:57:46.234Z,64.25
2023-06-19T01:00:16.249Z,64.38
2023-06-19T01:02:43.448Z,64.78
2023-06-19T01:05:10.296Z,64.75
2023-06-19T01:07:42.839Z,65.70
2023-06-19T01:10:14.707Z,64.84
2023-06-19T01:12:51.891Z,63.75
2023-06-19T01:15:19.475Z,64.12
2023-06-19T01:17:48.006Z,63.86
2023-06-19T01:20:15.970Z,64.08
2023-06-19T01:22:46.011Z,63.20
2023-06-19T01:25:14.956Z,63.29
2023-06-19T01:27:46.436Z,63.66
2023-06-19T01:30:13.993Z,63.90
2023-06-19T01:33:01.849Z,64.03
2023-06-19T01:35:30.825Z,64.91
2023-06-19T01:38:01.297Z,64.68
2023-06-19T01:40:32.954Z,64.78
2023-06-19T01:43:02.274Z,64.38
2023-06-19T01:45:31.230Z,64.55
2023-06-19T01:47:58.837Z,64.49
2023-06-19T01:50:26.305Z,64.65
2023-06-19T01:52:53.665Z,65.07
2023-06-19T01:55:21.324Z,65.80
2023-06-19T01:57:48.289Z,66.75
2023-06-19T02:00:16.260Z,65.95
2023-06-19T02:02:43.800Z,65.96
2023-06-19T02:05:11.155Z,65.71
2023-06-19T02:07:38.155Z,65.54
2023-06-19T02:10:06.365Z,65.76
2023-06-19T02:12:33.019Z,65.77
2023-06-19T02:14:59.768Z,66.31
2023-06-19T02:17:26.629Z,65.99
2023-06-19T02:19:53.419Z,67.08
2023-06-19T02:22:20.242Z,66.71
2023-06-19T02:24:47.099Z,66.61
2023-06-19T02:27:13.834Z,66.68
2023-06-19T02:29:40.538Z,67.35
2023-06-19T02:32:07.609Z,67.08
2023-06-19T02:34:34.844Z,66.64
2023-06-19T02:37:01.593Z,66.93
2023-06-19T02:39:28.458Z,66.85
2023-06-19T02:41:55.288Z,67.33
2023-06-19T02:44:22.056Z,66.75
2023-06-19T02:46:48.877Z,66.73
2023-06-19T02:49:16.284Z,67.08
2023-06-19T02:51:43.547Z,66.99
2023-06-19T02:54:10.282Z,67.19
2023-06-19T02:56:37.059Z,67.33
2023-06-19T02:59:03.788Z,67.06
2023-06-19T03:01:30.558Z,67.24
2023-06-19T03:03:57.461Z,67.17
2023-06-19T03:06:24.227Z,67.60
2023-06-19T03:08:52.185Z,67.84
2023-06-19T03:11:19.451Z,68.22
2023-06-19T03:13:53.635Z,68.53
2023-06-19T03:16:21.498Z,68.44
2023-06-19T03:18:52.932Z,68.19
2023-06-19T03:21:23.195Z,68.71
2023-06-19T03:23:51.362Z,69.22
2023-06-19T03:26:21.619Z,69.03
2023-06-19T03:28:49.142Z,68.92
2023-06-19T03:31:16.673Z,69.48
2023-06-19T03:33:43.728Z,69.27
2023-06-19T03:36:11.453Z,68.36
2023-06-19T03:38:49.031Z,68.64
2023-06-19T03:41:19.145Z,68.20
2023-06-19T03:43:47.069Z,67.50
2023-06-19T03:46:14.251Z,67.64
2023-06-19T03:48:41.046Z,67.29
2023-06-19T03:51:08.427Z,67.02
2023-06-19T03:53:35.360Z,67.69
2023-06-19T03:56:02.074Z,67.84
2023-06-19T03:58:28.876Z,67.59
2023-06-19T04:00:55.591Z,67.53
2023-06-19T04:03:22.783Z,67.88
2023-06-19T04:05:49.652Z,67.83
2023-06-19T04:08:17.160Z,68.57
2023-06-19T04:10:44.521Z,68.14
2023-06-19T04:13:11.470Z,67.60
2023-06-19T04:15:38.920Z,67.79
2023-06-19T04:18:05.881Z,67.90
2023-06-19T04:20:32.694Z,67.35
2023-06-19T04:22:59.582Z,67.06
2023-06-19T04:25:26.423Z,67.89
2023-06-19T04:27:53.506Z,70.91
2023-06-19T04:30:22.280Z,70.00
2023-06-19T04:32:49.500Z,69.70
2023-06-19T04:35:19.698Z,69.28
2023-06-19T04:37:46.575Z,67.81
2023-06-19T04:40:13.313Z,66.85
2023-06-19T04:42:40.095Z,67.49
2023-06-19T04:45:10.744Z,68.43
2023-06-19T04:47:51.779Z,67.35
2023-06-19T04:50:19.817Z,65.98
2023-06-19T04:52:46.600Z,66.30
2023-06-19T04:55:13.344Z,67.34
2023-06-19T04:57:40.098Z,67.13
2023-06-19T05:00:08.501Z,66.08
2023-06-19T05:02:35.617Z,64.13
2023-06-19T05:05:04.940Z,63.49
2023-06-19T05:07:34.458Z,64.86
2023-06-19T05:10:01.376Z,64.58
2023-06-19T05:12:28.195Z,64.64
2023-06-19T05:14:55.055Z,63.61
2023-06-19T05:17:22.628Z,63.33
2023-06-19T05:19:49.678Z,62.99
2023-06-19T05:22:16.589Z,63.35
2023-06-19T05:24:43.505Z,62.51
2023-06-19T05:27:10.351Z,63.15
2023-06-19T05:29:37.882Z,59.48
2023-06-19T05:32:05.544Z,60.92
2023-06-19T05:34:32.320Z,61.48
2023-06-19T05:37:01.920Z,61.48
2023-06-19T05:39:29.242Z,61.64
2023-06-19T05:41:55.890Z,61.69
2023-06-19T05:44:22.646Z,61.73
2023-06-19T05:46:49.538Z,61.88
2023-06-19T05:49:16.358Z,61.82
2023-06-19T05:51:43.061Z,61.91
2023-06-19T05:54:11.417Z,62.32
2023-06-19T05:56:38.426Z,62.73
2023-06-19T05:59:05.639Z,61.91
2023-06-19T06:01:32.578Z,61.55
2023-06-19T06:03:59.473Z,61.70
2023-06-19T06:06:29.608Z,62.19
2023-06-19T06:08:56.774Z,63.04
2023-06-19T06:11:24.392Z,64.71
2023-06-19T06:13:51.145Z,63.17
2023-06-19T06:16:17.927Z,63.18
2023-06-19T06:18:46.258Z,62.65
2023-06-19T06:21:14.382Z,62.25
2023-06-19T06:23:46.231Z,62.19
2023-06-19T06:26:13.293Z,64.20
2023-06-19T06:28:40.513Z,64.75
2023-06-19T06:31:08.345Z,65.32
2023-06-19T06:33:35.111Z,65.71
2023-06-19T06:36:01.887Z,64.54
2023-06-19T06:38:28.686Z,65.11
2023-06-19T06:40:55.648Z,65.43
2023-06-19T06:43:22.434Z,65.14
2023-06-19T06:45:49.462Z,66.34
2023-06-19T06:48:17.062Z,66.29
2023-06-19T06:50:44.553Z,66.49
2023-06-19T06:53:11.419Z,66.49
2023-06-19T06:55:38.893Z,65.29
2023-06-19T06:58:06.333Z,64.02
2023-06-19T07:00:33.459Z,64.07
2023-06-19T07:03:00.371Z,63.01
2023-06-19T07:05:27.240Z,65.75
2023-06-19T07:07:54.029Z,64.04
2023-06-19T07:10:20.725Z,64.32
2023-06-19T07:12:49.432Z,64.68
2023-06-19T07:15:17.218Z,64.45
2023-06-19T07:17:47.508Z,64.76
2023-06-19T07:20:14.918Z,65.31
2023-06-19T07:22:43.193Z,65.70
2023-06-19T07:25:12.245Z,66.17
2023-06-19T07:27:39.413Z,65.61
2023-06-19T07:30:06.864Z,64.58
2023-06-19T07:32:34.232Z,62.43
2023-06-19T07:35:01.117Z,61.30
2023-06-19T07:37:27.997Z,61.48
2023-06-19T07:39:54.766Z,61.97
2023-06-19T07:42:21.849Z,62.19
2023-06-19T07:44:49.108Z,62.53
2023-06-19T07:47:19.086Z,63.05
2023-06-19T07:49:47.149Z,62.01
2023-06-19T07:52:14.713Z,61.93
2023-06-19T07:54:56.924Z,60.79
2023-06-19T07:57:25.343Z,61.31
2023-06-19T07:59:53.057Z,61.09
2023-06-19T08:02:19.992Z,60.97
2023-06-19T08:04:50.213Z,60.24
2023-06-19T08:07:17.663Z,59.39
2023-06-19T08:09:44.495Z,58.87
2023-06-19T08:12:11.344Z,60.52
2023-06-19T08:14:39.652Z,58.86
2023-06-19T08:17:06.946Z,57.32
2023-06-19T08:19:33.849Z,57.60
2023-06-19T08:22:00.674Z,58.51
2023-06-19T08:24:27.534Z,57.51
2023-06-19T08:26:54.647Z,56.12
2023-06-19T08:29:21.994Z,57.68
2023-06-19T08:31:48.660Z,57.38
2023-06-19T08:34:16.810Z,55.07
2023-06-19T08:36:43.654Z,56.06
2023-06-19T08:39:10.807Z,54.50
2023-06-19T08:41:38.812Z,54.72
2023-06-19T08:44:09.111Z,54.46
2023-06-19T08:46:38.431Z,54.94
2023-06-19T08:49:07.396Z,55.00
2023-06-19T08:51:34.837Z,54.65
2023-06-19T08:54:06.456Z,53.47
2023-06-19T08:56:35.427Z,54.15
2023-06-19T08:59:14.160Z,54.34
2023-06-19T09:01:41.579Z,54.45
2023-06-19T09:04:13.183Z,53.94
2023-06-19T09:06:57.961Z,52.76
2023-06-19T09:09:26.669Z,51.97
2023-06-19T09:12:06.979Z,51.46
2023-06-19T09:14:40.592Z,51.54
2023-06-19T09:17:20.663Z,52.67
2023-06-19T09:19:50.986Z,52.80
2023-06-19T09:22:22.083Z,50.93
2023-06-19T09:24:49.836Z,51.06
2023-06-19T09:27:20.421Z,49.56
2023-06-19T09:29:49.471Z,49.53
2023-06-19T09:32:23.513Z,48.78
2023-06-19T09:34:54.149Z,50.06
2023-06-19T09:37:25.968Z,48.67
2023-06-19T09:40:00.916Z,47.09
2023-06-19T09:42:31.536Z,48.91
2023-06-19T09:45:05.274Z,48.76
2023-06-19T09:47:48.783Z,48.08
2023-06-19T09:50:18.145Z,46.56
2023-06-19T09:52:48.316Z,45.49
2023-06-19T09:55:15.438Z,45.46
2023-06-19T09:57:44.876Z,45.32
2023-06-19T10:00:16.952Z,45.64
2023-06-19T10:02:47.878Z,45.50
2023-06-19T10:05:15.889Z,42.97
2023-06-19T10:07:46.696Z,42.59
2023-06-19T10:10:26.518Z,39.55
2023-06-19T10:12:56.637Z,39.60
2023-06-19T10:15:27.843Z,37.29
2023-06-19T10:18:02.434Z,37.25
2023-06-19T10:20:34.995Z,36.89
2023-06-19T10:23:01.816Z,36.83
2023-06-19T10:25:34.322Z,35.61
2023-06-19T10:28:01.542Z,36.04
2023-06-19T10:30:30.231Z,36.74
2023-06-19T10:32:57.210Z,37.92
2023-06-19T10:35:25.594Z,36.04
2023-06-19T10:37:52.692Z,36.57
2023-06-19T10:40:19.641Z,36.19
2023-06-19T10:42:47.107Z,36.18
2023-06-19T10:45:17.022Z,36.08
2023-06-19T10:47:44.731Z,35.94
2023-06-19T10:50:15.881Z,34.71
2023-06-19T10:52:49.102Z,37.05
2023-06-19T10:55:16.265Z,35.50
2023-06-19T10:57:46.312Z,34.81
2023-06-19T11:00:27.644Z,34.82
2023-06-19T11:02:55.223Z,36.06
2023-06-19T11:05:22.901Z,35.57
2023-06-19T11:07:58.545Z,38.43
2023-06-19T11:10:27.276Z,36.42
2023-06-19T11:12:59.085Z,34.70
2023-06-19T11:15:33.397Z,35.11
2023-06-19T11:18:02.007Z,34.32
2023-06-19T11:20:29.247Z,34.47
2023-06-19T11:23:01.919Z,35.25
2023-06-19T11:25:38.911Z,36.62
2023-06-19T11:28:11.543Z,36.70
2023-06-19T11:30:38.565Z,36.32
2023-06-19T11:33:16.653Z,37.70
2023-06-19T11:35:48.606Z,37.26
2023-06-19T11:38:24.270Z,37.73
2023-06-19T11:40:51.379Z,35.61
2023-06-19T11:43:33.720Z,34.37
2023-06-19T11:46:09.554Z,33.77
2023-06-19T11:48:40.281Z,33.22
2023-06-19T11:51:07.297Z,34.01
2023-06-19T11:53:35.289Z,34.96
2023-06-19T11:56:01.994Z,36.75
2023-06-19T11:58:28.722Z,35.51
2023-06-19T12:00:57.659Z,35.62
2023-06-19T12:03:24.563Z,35.46
2023-06-19T12:05:51.472Z,34.98
2023-06-19T12:08:18.292Z,34.85
2023-06-19T12:10:45.116Z,35.41
2023-06-19T12:13:11.881Z,34.84
2023-06-19T12:15:38.610Z,35.59
2023-06-19T12:18:08.177Z,34.98
2023-06-19T12:20:35.905Z,36.49
2023-06-19T12:23:02.666Z,36.48
2023-06-19T12:25:29.389Z,34.25
2023-06-19T12:27:57.579Z,33.97
2023-06-19T12:30:25.063Z,35.35
2023-06-19T12:32:54.222Z,35.26
2023-06-19T12:35:21.876Z,34.46
2023-06-19T12:37:48.883Z,35.41
2023-06-19T12:40:15.736Z,34.88
2023-06-19T12:42:42.486Z,36.10
2023-06-19T12:45:09.800Z,35.99
2023-06-19T12:47:37.271Z,35.36
2023-06-19T12:50:04.823Z,34.18
2023-06-19T12:52:32.160Z,36.12
2023-06-19T12:55:00.863Z,36.70
2023-06-19T12:57:27.645Z,37.90
2023-06-19T12:59:54.420Z,35.82
2023-06-19T13:02:21.377Z,35.10
2023-06-19T13:04:48.368Z,35.50
2023-06-19T13:07:15.253Z,35.48
2023-06-19T13:09:42.012Z,35.86
2023-06-19T13:12:09.384Z,34.60
2023-06-19T13:14:36.277Z,34.21
2023-06-19T13:17:03.638Z,34.56
2023-06-19T13:19:30.393Z,34.56
2023-06-19T13:21:57.162Z,35.10
2023-06-19T13:24:24.063Z,35.46
2023-06-19T13:26:50.961Z,34.65
2023-06-19T13:29:17.777Z,33.41
2023-06-19T13:31:44.548Z,33.85
2023-06-19T13:34:11.604Z,32.63
2023-06-19T13:36:38.685Z,35.07
2023-06-19T13:39:05.580Z,33.22
2023-06-19T13:41:33.687Z,34.38
2023-06-19T13:44:01.476Z,32.79
2023-06-19T13:46:28.670Z,32.31
2023-06-19T13:48:55.444Z,33.94
2023-06-19T13:51:22.949Z,33.66
2023-06-19T13:53:51.014Z,33.41
2023-06-19T13:56:18.011Z,34.21
2023-06-19T13:58:44.950Z,33.36
2023-06-19T14:01:11.714Z,33.34
2023-06-19T14:03:42.307Z,31.87
2023-06-19T14:06:09.768Z,32.00
2023-06-19T14:08:36.492Z,32.42
2023-06-19T14:11:03.519Z,32.85
2023-06-19T14:13:30.541Z,32.86
2023-06-19T14:15:57.474Z,32.40
2023-06-19T14:18:24.157Z,31.25
2023-06-19T14:20:52.068Z,31.10
2023-06-19T14:23:18.796Z,32.17
2023-06-19T14:25:45.549Z,31.55
2023-06-19T14:28:12.330Z,31.69
2023-06-19T14:30:39.940Z,31.33
2023-06-19T14:33:06.636Z,31.64
2023-06-19T14:35:33.374Z,30.99
2023-06-19T14:38:00.191Z,32.56
2023-06-19T14:40:27.200Z,31.13
2023-06-19T14:42:54.295Z,32.71
2023-06-19T14:45:21.355Z,31.04
2023-06-19T14:47:48.332Z,31.75
2023-06-19T14:50:15.302Z,30.92
2023-06-19T14:52:42.053Z,31.68
2023-06-19T14:55:09.084Z,31.24
2023-06-19T14:57:37.566Z,31.16
2023-06-19T15:00:06.841Z,30.73
2023-06-19T15:02:33.862Z,31.34
2023-06-19T15:05:06.265Z,31.49
2023-06-19T15:07:34.077Z,31.61
2023-06-19T15:10:00.844Z,30.55
2023-06-19T15:12:27.907Z,31.49
2023-06-19T15:14:54.656Z,30.74
2023-06-19T15:17:22.518Z,31.87
2023-06-19T15:19:49.493Z,31.36
2023-06-19T15:22:16.452Z,31.83
2023-06-19T15:24:43.650Z,31.55
2023-06-19T15:27:10.477Z,31.31
2023-06-19T15:29:37.311Z,31.22
2023-06-19T15:32:04.384Z,31.73
2023-06-19T15:34:31.352Z,32.06
2023-06-19T15:36:58.080Z,33.82
2023-06-19T15:39:25.457Z,32.22
2023-06-19T15:41:52.232Z,31.68
2023-06-19T15:44:19.000Z,32.41
2023-06-19T15:46:46.304Z,32.69
2023-06-19T15:49:13.957Z,31.75
2023-06-19T15:51:40.706Z,32.63
2023-06-19T15:54:07.529Z,31.46
2023-06-19T15:56:34.300Z,32.47
2023-06-19T15:59:01.082Z,31.72
2023-06-19T16:01:27.886Z,31.69
2023-06-19T16:03:54.791Z,31.59
2023-06-19T16:06:21.664Z,32.12
2023-06-19T16:08:49.648Z,32.74
2023-06-19T16:11:16.403Z,33.03
2023-06-19T16:13:43.188Z,32.37
2023-06-19T16:16:10.113Z,34.20
2023-06-19T16:18:37.896Z,32.95
2023-06-19T16:21:05.758Z,34.01
2023-06-19T16:23:32.541Z,33.20
2023-06-19T16:25:59.841Z,33.64
2023-06-19T16:28:27.675Z,32.10
2023-06-19T16:30:54.564Z,32.15
2023-06-19T16:33:21.459Z,32.35
2023-06-19T16:35:48.311Z,31.89
2023-06-19T16:38:15.101Z,32.60
2023-06-19T16:40:42.121Z,32.01
2023-06-19T16:43:10.953Z,31.73
2023-06-19T16:45:38.841Z,32.17
2023-06-19T16:50:32.565Z,33.19
2023-06-19T16:53:00.046Z,33.17
2023-06-19T16:55:26.780Z,32.77
2023-06-19T16:57:53.511Z,32.54
2023-06-19T17:00:20.858Z,33.71
2023-06-19T17:02:48.525Z,34.21
2023-06-19T17:05:15.474Z,33.40
2023-06-19T17:07:42.323Z,33.16
2023-06-19T17:10:09.595Z,33.69
2023-06-19T17:12:36.456Z,33.64
2023-06-19T17:15:03.383Z,33.19
2023-06-19T17:17:30.313Z,34.71
2023-06-19T17:19:57.422Z,33.28
2023-06-19T17:22:24.269Z,33.02
2023-06-19T17:24:52.581Z,34.25
2023-06-19T17:27:19.354Z,34.49
2023-06-19T17:29:46.104Z,33.37
2023-06-19T17:32:12.892Z,35.28
2023-06-19T17:34:39.647Z,33.99
2023-06-19T17:37:06.771Z,33.85
2023-06-19T17:39:33.527Z,35.42
2023-06-19T17:42:00.275Z,36.08
2023-06-19T17:44:29.128Z,35.60
2023-06-19T17:46:57.298Z,35.50
2023-06-19T17:49:24.616Z,36.49
2023-06-19T17:51:51.617Z,36.68
2023-06-19T17:54:18.518Z,37.57
2023-06-19T17:56:45.862Z,36.17
2023-06-19T17:59:14.637Z,35.21
2023-06-19T18:01:41.957Z,35.76
2023-06-19T18:04:09.596Z,36.34
2023-06-19T18:06:36.803Z,36.03
2023-06-19T18:09:06.676Z,36.12
2023-06-19T18:11:34.271Z,35.74
2023-06-19T18:14:02.252Z,35.86
2023-06-19T18:16:29.341Z,37.63
2023-06-19T18:18:56.428Z,37.06
2023-06-19T18:21:23.340Z,37.81
2023-06-19T18:23:50.459Z,37.63
2023-06-19T18:26:17.583Z,37.99
2023-06-19T18:28:46.419Z,38.63
2023-06-19T18:31:14.549Z,39.21
2023-06-19T18:33:42.310Z,39.22
2023-06-19T18:36:09.713Z,38.96
2023-06-19T18:38:36.820Z,39.55
2023-06-19T18:41:05.447Z,40.82
2023-06-19T18:43:35.293Z,40.79
2023-06-19T18:46:03.928Z,41.00
2023-06-19T18:48:31.193Z,41.81
2023-06-19T18:50:59.189Z,42.60
2023-06-19T18:53:26.540Z,43.42
2023-06-19T18:55:56.860Z,43.36
2023-06-19T18:58:23.761Z,43.59
2023-06-19T19:00:50.544Z,44.00
2023-06-19T19:03:18.632Z,43.17
2023-06-19T19:05:45.649Z,44.10
2023-06-19T19:08:14.105Z,44.71
2023-06-19T19:10:41.483Z,44.77
2023-06-19T19:13:08.858Z,46.28
2023-06-19T19:15:39.593Z,47.18
2023-06-19T19:18:06.623Z,47.43
2023-06-19T19:20:33.407Z,46.55
2023-06-19T19:23:00.076Z,46.71
2023-06-19T19:25:26.862Z,47.13
2023-06-19T19:27:53.663Z,46.82
2023-06-19T19:30:20.466Z,46.93
2023-06-19T19:32:47.378Z,47.02
2023-06-19T19:35:14.124Z,47.75
2023-06-19T19:37:40.889Z,47.25
2023-06-19T19:40:08.351Z,47.91
2023-06-19T19:42:35.166Z,47.80
2023-06-19T19:45:03.762Z,48.81
2023-06-19T19:47:32.368Z,48.39
2023-06-19T19:49:59.157Z,49.26
2023-06-19T19:52:26.343Z,49.51
2023-06-19T19:54:54.952Z,49.35
2023-06-19T19:57:22.060Z,47.10
2023-06-19T19:59:50.383Z,46.39
2023-06-19T20:02:17.389Z,46.61
2023-06-19T20:04:44.192Z,46.58
2023-06-19T20:07:11.135Z,46.61
2023-06-19T20:09:38.086Z,46.51
2023-06-19T20:12:20.803Z,46.63
2023-06-19T20:14:48.481Z,47.12
2023-06-19T20:17:15.538Z,47.33
2023-06-19T20:19:42.805Z,47.23
2023-06-19T20:22:09.866Z,47.45
2023-06-19T20:24:38.177Z,47.48
2023-06-19T20:27:06.999Z,48.14
2023-06-19T20:29:34.239Z,47.89
2023-06-19T20:32:01.916Z,47.57
2023-06-19T20:34:28.865Z,48.31
2023-06-19T20:36:57.872Z,48.32
2023-06-19T20:39:24.815Z,48.88
2023-06-19T20:41:51.687Z,49.47
2023-06-19T20:44:19.335Z,49.84
2023-06-19T20:46:46.135Z,50.03
2023-06-19T20:49:13.379Z,50.70
2023-06-19T20:51:40.754Z,51.45
2023-06-19T20:54:08.089Z,52.59
2023-06-19T20:56:35.944Z,52.31
2023-06-19T20:59:03.496Z,53.11
2023-06-19T21:01:31.207Z,52.26
2023-06-19T21:04:03.054Z,52.21
2023-06-19T21:06:34.338Z,52.17
2023-06-19T21:09:04.329Z,51.71
2023-06-19T21:11:31.805Z,51.49
2023-06-19T21:13:59.001Z,51.58
2023-06-19T21:16:26.019Z,51.67
2023-06-19T21:18:52.861Z,52.16
2023-06-19T21:21:19.813Z,51.86
2023-06-19T21:23:46.892Z,52.43
2023-06-19T21:26:14.314Z,52.56
2023-06-19T21:28:41.190Z,53.14
2023-06-19T21:31:08.160Z,53.28
2023-06-19T21:33:35.683Z,53.33
2023-06-19T21:36:03.629Z,53.91
2023-06-19T21:38:31.007Z,54.75
2023-06-19T21:40:58.461Z,54.55
2023-06-19T21:43:25.768Z,54.74
2023-06-19T21:45:53.577Z,54.85
2023-06-19T21:48:20.844Z,54.90
2023-06-19T21:50:47.814Z,54.87
2023-06-19T21:53:14.605Z,54.88
2023-06-19T21:55:41.484Z,56.34
2023-06-19T21:58:08.453Z,56.47
2023-06-19T22:00:35.212Z,56.62
2023-06-19T22:03:02.167Z,56.12
2023-06-19T22:05:29.865Z,56.57
2023-06-19T22:07:57.105Z,57.71
2023-06-19T22:10:25.398Z,58.30
2023-06-19T22:12:52.893Z,58.21
2023-06-19T22:15:19.768Z,57.89
2023-06-19T22:17:46.733Z,58.00
2023-06-19T22:20:15.919Z,58.17
2023-06-19T22:22:42.760Z,58.81
2023-06-19T22:25:09.783Z,59.66
2023-06-19T22:27:36.931Z,59.53
2023-06-19T22:30:04.798Z,59.61
2023-06-19T22:32:31.793Z,59.51
2023-06-19T22:34:58.840Z,59.21
2023-06-19T22:37:26.426Z,59.21
2023-06-19T22:39:53.642Z,59.48
2023-06-19T22:42:20.358Z,60.62
2023-06-19T22:44:47.601Z,60.34
2023-06-19T22:47:15.186Z,60.15
2023-06-19T22:49:43.945Z,60.23
2023-06-19T22:52:11.368Z,60.10
2023-06-19T22:54:39.444Z,60.01
2023-06-19T22:57:06.718Z,60.61
2023-06-19T22:59:33.416Z,60.47
2023-06-19T23:02:00.071Z,60.15
2023-06-19T23:04:26.832Z,59.86
2023-06-19T23:06:53.990Z,60.60
2023-06-19T23:09:21.738Z,60.07
2023-06-19T23:11:50.496Z,60.54
2023-06-19T23:14:17.559Z,61.05
2023-06-19T23:16:44.766Z,60.56
2023-06-19T23:19:13.249Z,60.52
2023-06-19T23:21:40.474Z,59.95
2023-06-19T23:24:07.565Z,59.79
2023-06-19T23:26:35.237Z,59.81
2023-06-19T23:29:03.110Z,62.02
2023-06-19T23:31:29.995Z,61.40
2023-06-19T23:34:00.233Z,61.87
2023-06-19T23:36:27.931Z,61.50
2023-06-19T23:38:55.067Z,61.18
2023-06-19T23:41:22.172Z,60.62
2023-06-19T23:43:50.237Z,61.19
2023-06-19T23:46:19.229Z,62.55
2023-06-19T23:48:46.629Z,62.03
2023-06-19T23:51:14.340Z,62.31
2023-06-19T23:53:41.084Z,62.15
2023-06-19T23:56:07.892Z,62.09
2023-06-19T23:58:35.001Z,62.60
